Metar Cercanos

 

LEPA - Palma De Mallorc, Spain
Distance from station: ONO 38km
Actualización: 24/05/2017 09:30
Despejado
Despejado
 Viento del NNE
Viento: NNE 6 km/h
Temperatura: 23°C
Rocío: 15°C
Humedad: 61%
Barómetro: 1020 hPa
Resumen: Despejado
Visibility: greater than 10 km
2017/05/24 07:30 LEPA 240730Z 03003KT 330V070 CAVOK 23/15 Q1020 NOSIG
LEMH - Mahon/Menorca Is, Spain
Distance from station: ENE 105km
Actualización: 24/05/2017 09:30
Despejado
Despejado
 Viento del NNE
Viento: NNE 11 km/h
Temperatura: 22°C
Rocío: 13°C
Humedad: 57%
Barómetro: 1020 hPa
Resumen: Despejado
Visibility: greater than 10 km
2017/05/24 07:30 LEMH 240730Z 02006KT 330V070 CAVOK 22/13 Q1020
 
LEIB - Ibiza/Es Codola, Spain
Distance from station: OSO 165km
Actualización: 24/05/2017 09:30
Despejado
Despejado
 Viento del E
Viento: E 6 km/h
Temperatura: 23°C
Rocío: 11°C
Humedad: 47%
Barómetro: 1021 hPa
Resumen: Despejado
Visibility: greater than 10 km
2017/05/24 07:30 LEIB 240730Z 08003KT 030V140 CAVOK 23/11 Q1021 NOSIG
LEBL - Barcelona Airpor, Spain
Distance from station: NNO 225km
Actualización: 24/05/2017 09:30
Despejado
Despejado
 Viento del OSO
Viento: OSO 13 km/h
Temperatura: 23°C
Rocío: 14°C
Humedad: 57%
Barómetro: 1020 hPa
Resumen: Despejado
Visibility: greater than 10 km
2017/05/24 07:30 LEBL 240730Z 25007KT 230V290 CAVOK 23/14 Q1020 NOSIG
 
LEVC - Valencia (civ/Mi, Spain
Distance from station: NO 188km
Actualización: 24/05/2017 09:30
Despejado
Despejado
 Viento del calm
Viento: Calma
Temperatura: 22°C
Rocío: 13°C
Humedad: 57%
Barómetro: 1021 hPa
Resumen: Despejado
Visibility: greater than 10 km
2017/05/24 07:30 LEVC 240730Z 00000KT CAVOK 22/13 Q1021 NOSIG
LEGE - Gerona/Costa Bra, Spain
Distance from station: N 276km
Actualización: 24/05/2017 09:30
Despejado
Despejado
 Viento del calm
Viento: Calma
Temperatura: 23°C
Rocío: 15°C
Humedad: 61%
Barómetro: 1020 hPa
Resumen: Despejado
Visibility: greater than 10 km
2017/05/24 07:30 LEGE 240730Z 00000KT CAVOK 23/15 Q1020
 
LEAL - Alicante/El Alte, Spain
Distance from station: OSO 344km
Actualización: 24/05/2017 09:30
Despejado
Despejado
 Viento del varies
Viento: varies 2 km/h
Temperatura: 23°C
Rocío: 10°C
Humedad: 44%
Barómetro: 1020 hPa
Resumen: Despejado
Visibility: greater than 10 km
2017/05/24 07:30 LEAL 240730Z VRB01KT CAVOK 23/10 Q1020 NOSIG
LEAM - Almeria Airport, Spain
Distance from station: SSO 56km
Actualización: 24/05/2017 09:30
Despejado
Despejado
 Viento del E
Viento: E 9 km/h
Temperatura: 26°C
Rocío: 6°C
Humedad: 28%
Barómetro: 1018 hPa
Resumen: Despejado
Visibility: greater than 10 km
2017/05/24 07:30 LEAM 240730Z 08005KT 350V160 CAVOK 26/06 Q1018
 
LEZG - Zaragoza (mil/Ci, Spain
Distance from station: NO 431km
Actualización: 24/05/2017 09:30
Despejado
Despejado
 Viento del NO
Viento: NO 9 km/h
Temperatura: 21°C
Rocío: 12°C
Humedad: 57%
Barómetro: 1021 hPa
Resumen: Despejado
Visibility: greater than 10 km
2017/05/24 07:30 LEZG 240730Z 31005KT 280V350 CAVOK 21/12 Q1021
LEMD - Madrid/Barajas, Spain
Distance from station: ONO 234km
Actualización: 24/05/2017 09:30
Despejado
Despejado
 Viento del varies
Viento: varies 2 km/h
Temperatura: 21°C
Rocío: 8°C
Humedad: 43%
Barómetro: 1022 hPa
Resumen: Despejado
Visibility: greater than 10 km
2017/05/24 07:30 LEMD 240730Z VRB01KT CAVOK 21/08 Q1022 NOSIG
 
LEGR - Granada Airport, Spain
Distance from station: OSO 62km
Actualización: 24/05/2017 09:30
Despejado
Despejado
 Viento del E
Viento: E 7 km/h
Temperatura: 23°C
Rocío: -1°C
Humedad: 20%
Barómetro: 1019 hPa
Resumen: Despejado
Visibility: greater than 10 km
2017/05/24 07:30 LEGR 240730Z 10004KT 040V160 CAVOK 23/M01 Q1019
LEMG - Malaga (civ/Mil), Spain
Distance from station: OSO 227km
Actualización: 24/05/2017 09:30
Despejado
Despejado
 Viento del varies
Viento: varies 2 km/h
Temperatura: 20°C
Rocío: 15°C
Humedad: 73%
Barómetro: 1018 hPa
Resumen: Despejado
Visibility: greater than 10 km
2017/05/24 07:30 LEMG 240730Z VRB01KT CAVOK 20/15 Q1018 BECMG 13006KT
 
LEZL - Sevilla (civ/Mil, Spain
Distance from station: S 318km
Actualización: 24/05/2017 09:30
Despejado
Despejado
 Viento del ENE
Viento: ENE 22 km/h
Temperatura: 23°C
Rocío: 11°C
Humedad: 47%
Barómetro: 1015 hPa
Resumen: Despejado
Visibility: greater than 10 km
2017/05/24 07:30 LEZL 240730Z 06012KT CAVOK 23/11 Q1015 NOSIG
LEVT - Vitoria, Spain
Distance from station: NO 226km
Actualización: 24/05/2017 09:30
Niebla, Cubierto
Niebla, Cubierto
 Viento del calm
Viento: Calma
Temperatura: 12°C
Rocío: 12°C
Humedad: 100%
Barómetro: 1023 hPa
Resumen: Niebla
Clouds: Cubierto
Visibility: 1 km
Cloud details: Cubierto 61 m
2017/05/24 07:30 LEVT 240730Z 00000KT 0500 R04/0650N FG VV002 12/12 Q1023
 
LEBB - Bilbao/Sondica, Spain
Distance from station: NNO 235km
Actualización: 24/05/2017 09:30
Few Clouds
Few Clouds
 Viento del ESE
Viento: ESE 9 km/h
Temperatura: 18°C
Rocío: 14°C
Humedad: 78%
Barómetro: 1022 hPa
Clouds: Few Clouds
Visibility: 10 km
Cloud details: Few Clouds 427 m
2017/05/24 07:30 LEBB 240730Z 11005KT 070V140 9999 FEW014 18/14 Q1022 NOSIG
LESO - San Sebastian/Fu, Spain
Distance from station: N 231km
Actualización: 24/05/2017 09:30
Few Clouds
Few Clouds
 Viento del calm
Viento: Calma
Temperatura: 18°C
Rocío: 15°C
Humedad: 83%
Barómetro: 1022 hPa
Clouds: Few Clouds
Visibility: 10 km
Cloud details: Few Clouds 183 m
2017/05/24 07:30 LESO 240730Z 00000KT 9999 FEW006 18/15 Q1022
 
LEVD - Valladolid(Mil/C, Spain
Distance from station: ONO 239km
Actualización: 24/05/2017 09:30
Despejado
Despejado
 Viento del ENE
Viento: ENE 9 km/h
Temperatura: 17°C
Rocío: 7°C
Humedad: 52%
Barómetro: 1021 hPa
Resumen: Despejado
Visibility: greater than 10 km
2017/05/24 07:30 LEVD 240730Z 07005KT CAVOK 17/07 Q1021
LESA - Salamanca (civ/M, Spain
Distance from station: ONO 349km
Actualización: 24/05/2017 09:30
Despejado
Despejado
 Viento del varies
Viento: varies 2 km/h
Temperatura: 21°C
Rocío: 10°C
Humedad: 50%
Barómetro: 1020 hPa
Resumen: Despejado
Visibility: greater than 10 km
2017/05/24 07:30 LESA 240730Z VRB01KT CAVOK 21/10 Q1020
 
LEXJ - Santander/Paraya, Spain
Distance from station: NNO 247km
Actualización: 24/05/2017 09:30
Few Clouds
Few Clouds
 Viento del varies
Viento: varies 4 km/h
Temperatura: 18°C
Rocío: 14°C
Humedad: 78%
Barómetro: 1020 hPa
Clouds: Few Clouds
Visibility: 10 km
Cloud details: Few Clouds 1067 m
2017/05/24 07:30 LEXJ 240730Z VRB02KT 9999 FEW035 18/14 Q1020
LEAS - Asturias/Aviles, Spain
Distance from station: NO 214km
Actualización: 24/05/2017 09:30
Cubierto
Cubierto
 Viento del SE
Viento: SE 11 km/h
Temperatura: 14°C
Rocío: 13°C
Humedad: 94%
Barómetro: 1020 hPa
Clouds: Cubierto
Visibility: 7 km
Cloud details: Parcialmente nuboso 183 m
Cubierto 213 m
2017/05/24 07:30 LEAS 240730Z 13006KT 080V180 7000 SCT006 OVC007 14/13 Q1020 TEMPO 4000 BR BKN005
 
LECO - La Coruna/Alvedr, Spain
Distance from station: ONO 222km
Actualización: 24/05/2017 09:30
Despejado
Despejado
 Viento del varies
Viento: varies 2 km/h
Temperatura: 19°C
Rocío: 13°C
Humedad: 68%
Barómetro: 1016 hPa
Resumen: Despejado
Visibility: greater than 10 km
2017/05/24 07:30 LECO 240730Z VRB01KT CAVOK 19/13 Q1016 NOSIG
LEVX - Vigo/Peinador, Spain
Distance from station: O 214km
Actualización: 24/05/2017 09:30
Despejado
Despejado
 Viento del varies
Viento: varies 4 km/h, Racha: 22 km/h
Temperatura: 24°C
Rocío: 14°C
Humedad: 54%
Barómetro: 1016 hPa
Resumen: Despejado
Visibility: greater than 10 km
2017/05/24 07:30 LEVX 240730Z VRB02G12KT CAVOK 24/14 Q1016 NOSIG